»·PEaware :: N1507D L52-L88

N1507D :: L52-L88

FLIGHT INFORMATION

Flight Status: Arrived
Operator: Privately registered:
United States
More flights under this callsign
Pilot: Fabio L. (11512)
Aircraft: CESSNA 172 SKYHAWK
(C172)
More flights by this aircraft type
Origin: L52 Oceano Co
United States
Destination: L88 New Cuyama
United States
More flights between these airports :: More routes between these airports
Route: DIRECT
File this flight plan on PilotEdge
Remarks: CAT 1
Altitude:
(Current/Filed)
7,500ft
Speed:
(Current/Filed)
107kts
Departed: 07-Nov-18 07:12 AM
Arrived: 07-Nov-18 07:44 AM
Distance/Time
Traveled:
47nm/0:32
Distance/Time
To Go:
Arrived

Flight Plot

Page will automatically refresh every two minutes.


Map Options




Map Legend


Flown Route
Filed Route
Departure Airport
Arrival Airport
Navaid (VOR, NDB)
Fix

Horizontal Profiles

Position Reports

Time Latitude Longitude Heading Altitude Ground
Speed
07-Nov-18 06:54 35.103293 -120.624579 211 18ft 0kts
07-Nov-18 06:55 35.103293 -120.624579 211 18ft 0kts
07-Nov-18 06:56 35.103293 -120.624579 211 18ft 0kts
07-Nov-18 06:57 35.103293 -120.624579 211 18ft 0kts
07-Nov-18 06:58 35.103293 -120.624579 211 18ft 0kts
07-Nov-18 06:59 35.103293 -120.624579 211 18ft 0kts
07-Nov-18 07:00 35.103293 -120.624579 211 18ft 0kts
07-Nov-18 07:01 35.103293 -120.624579 211 18ft 0kts
07-Nov-18 07:02 35.103293 -120.624579 211 18ft 0kts
07-Nov-18 07:03 35.103293 -120.624579 211 18ft 0kts
07-Nov-18 07:04 35.103293 -120.624579 211 18ft 0kts
07-Nov-18 07:05 35.103293 -120.624579 211 18ft 0kts
07-Nov-18 07:06 35.103293 -120.624579 211 18ft 0kts
07-Nov-18 07:07 35.103293 -120.624579 211 18ft 0kts
07-Nov-18 07:08 35.103293 -120.624579 211 18ft 0kts
07-Nov-18 07:09 35.103293 -120.624579 211 18ft 0kts
07-Nov-18 07:10 35.103293 -120.624579 211 18ft 0kts
07-Nov-18 07:11 35.103293 -120.624579 211 18ft 0kts
07-Nov-18 07:12 35.103063 -120.624328 121 18ft 11kts
07-Nov-18 07:13 35.100997 -120.622279 123 18ft 20kts
07-Nov-18 07:14 35.099569 -120.619519 52 18ft 0kts
07-Nov-18 07:15 35.101593 -120.622464 304 30ft 64kts
07-Nov-18 07:16 35.111302 -120.624183 115 815ft 76kts
07-Nov-18 07:17 35.102782 -120.595369 99 1424ft 98kts
07-Nov-18 07:18 35.097505 -120.562823 101 2122ft 97kts
07-Nov-18 07:19 35.091970 -120.531192 101 2813ft 93kts
07-Nov-18 07:20 35.086732 -120.501407 101 3501ft 87kts
07-Nov-18 07:21 35.081716 -120.472837 101 4137ft 87kts
07-Nov-18 07:22 35.076559 -120.443690 101 4738ft 87kts
07-Nov-18 07:23 35.071473 -120.414948 101 5334ft 86kts
07-Nov-18 07:24 35.066499 -120.386959 101 5926ft 82kts
07-Nov-18 07:25 35.061533 -120.358977 101 6426ft 86kts
07-Nov-18 07:26 35.056549 -120.330951 102 6913ft 86kts
07-Nov-18 07:27 35.051545 -120.302931 102 7403ft 83kts
07-Nov-18 07:28 35.046267 -120.273624 102 7505ft 93kts
07-Nov-18 07:29 35.040547 -120.241813 102 7503ft 97kts
07-Nov-18 07:30 35.034792 -120.209620 102 7503ft 97kts
07-Nov-18 07:31 35.029042 -120.177480 102 7503ft 97kts
07-Nov-18 07:32 35.023293 -120.145383 102 7478ft 100kts
07-Nov-18 07:33 35.016837 -120.109941 102 6991ft 107kts
07-Nov-18 07:34 35.010549 -120.074912 102 6486ft 104kts
07-Nov-18 07:35 35.004352 -120.040472 102 5978ft 105kts
07-Nov-18 07:36 34.997902 -120.004854 102 5387ft 109kts
07-Nov-18 07:37 34.991325 -119.968550 102 4790ft 110kts
07-Nov-18 07:38 34.985031 -119.933824 102 4222ft 111kts
07-Nov-18 07:39 34.978332 -119.896932 102 3626ft 112kts
07-Nov-18 07:40 34.971537 -119.859586 102 3138ft 105kts
07-Nov-18 07:41 34.966409 -119.830752 102 3154ft 95kts
07-Nov-18 07:42 34.960534 -119.798506 102 3153ft 98kts
07-Nov-18 07:43 34.954533 -119.765704 102 3153ft 99kts
07-Nov-18 07:44 34.947364 -119.733081 109 3154ft 99kts
07-Nov-18 07:45 34.938695 -119.700210 110 3068ft 104kts
07-Nov-18 07:46 34.931418 -119.672948 46 2806ft 86kts
07-Nov-18 07:47 34.941641 -119.689936 297 2207ft 29kts
07-Nov-18 07:48 34.942676 -119.690530 53 2207ft 3kts
07-Nov-18 07:49 34.942699 -119.690510 19 2207ft 0kts
07-Nov-18 07:50 34.942699 -119.690510 19 2207ft 0kts
07-Nov-18 07:51 34.942699 -119.690510 19 2207ft 0kts

Navigation Log

Ident Type
Flight plan parsing failed, navigation log unavailable